createdAt,value
2022-10-23T00:01:43.058Z,8.27
2022-10-23T00:04:16.580Z,7.80
2022-10-23T00:06:45.345Z,15.27
2022-10-23T00:09:16.089Z,7.82
2022-10-23T00:11:47.627Z,10.95
2022-10-23T00:14:17.189Z,8.57
2022-10-23T00:16:45.028Z,11.73
2022-10-23T00:19:12.653Z,12.25
2022-10-23T00:21:40.370Z,11.07
2022-10-23T00:26:40.678Z,15.80
2022-10-23T00:29:09.297Z,9.18
2022-10-23T00:31:37.329Z,11.35
2022-10-23T00:34:08.090Z,12.07
2022-10-23T00:36:36.014Z,6.68
2022-10-23T00:39:04.403Z,10.32
2022-10-23T00:41:32.703Z,13.15
2022-10-23T00:44:09.535Z,6.22
2022-10-23T00:46:39.203Z,6.03
2022-10-23T00:49:07.941Z,9.68
2022-10-23T00:51:58.267Z,11.98
2022-10-23T00:54:29.707Z,10.93
2022-10-23T00:57:00.194Z,9.02
2022-10-23T00:59:28.622Z,11.10
2022-10-23T01:01:56.309Z,8.57
2022-10-23T01:04:25.847Z,9.68
2022-10-23T01:07:00.701Z,8.40
2022-10-23T01:09:59.932Z,7.22
2022-10-23T01:13:02.497Z,8.45
2022-10-23T01:15:33.230Z,8.10
2022-10-23T01:18:31.891Z,6.93
2022-10-23T01:21:03.184Z,12.85
2022-10-23T01:23:33.673Z,7.30
2022-10-23T01:26:40.002Z,11.13
2022-10-23T01:29:33.766Z,9.35
2022-10-23T01:32:07.706Z,13.00
2022-10-23T01:35:09.554Z,10.38
2022-10-23T01:37:46.175Z,8.90
2022-10-23T01:40:34.674Z,6.55
2022-10-23T01:43:07.105Z,6.82
2022-10-23T01:45:38.036Z,8.68
2022-10-23T01:48:12.192Z,8.55
2022-10-23T01:50:42.700Z,9.10
2022-10-23T01:53:10.446Z,9.77
2022-10-23T01:58:12.037Z,8.68
2022-10-23T02:00:44.254Z,7.57
2022-10-23T02:03:14.901Z,3.88
2022-10-23T02:05:44.643Z,8.32
2022-10-23T02:08:12.736Z,9.45
2022-10-23T02:10:59.698Z,13.95
2022-10-23T02:13:36.997Z,11.52
2022-10-23T02:16:27.586Z,12.43
2022-10-23T02:19:03.942Z,14.18
2022-10-23T02:21:56.259Z,12.55
2022-10-23T02:24:36.465Z,13.20
2022-10-23T02:27:23.833Z,9.30
2022-10-23T02:30:00.372Z,7.60
2022-10-23T02:32:29.486Z,11.52
2022-10-23T02:34:57.272Z,8.55
2022-10-23T02:37:25.584Z,9.07
2022-10-23T02:39:54.612Z,10.05
2022-10-23T02:42:40.804Z,9.80
2022-10-23T02:45:36.619Z,6.35
2022-10-23T02:48:17.151Z,10.35
2022-10-23T02:50:54.842Z,17.15
2022-10-23T02:53:54.310Z,12.10
2022-10-23T02:56:28.092Z,10.07
2022-10-23T02:59:40.994Z,9.27
2022-10-23T03:02:25.719Z,7.60
2022-10-23T03:04:55.787Z,9.90
2022-10-23T03:07:26.538Z,5.20
2022-10-23T03:10:02.008Z,9.80
2022-10-23T03:12:31.396Z,12.13
2022-10-23T03:15:00.246Z,8.50
2022-10-23T03:17:27.712Z,10.70
2022-10-23T03:19:58.504Z,6.50
2022-10-23T03:22:26.289Z,8.10
2022-10-23T03:24:53.759Z,7.50
2022-10-23T03:27:21.455Z,11.60
2022-10-23T03:29:49.349Z,9.18
2022-10-23T03:32:18.148Z,8.60
2022-10-23T03:34:45.739Z,8.65
2022-10-23T03:37:13.243Z,8.15
2022-10-23T03:39:40.666Z,10.20
2022-10-23T03:42:08.133Z,7.03
2022-10-23T03:44:35.763Z,13.13
2022-10-23T03:47:04.504Z,6.32
2022-10-23T03:49:31.983Z,11.32
2022-10-23T03:52:05.253Z,6.90
2022-10-23T03:54:33.872Z,11.35
2022-10-23T03:57:01.964Z,5.43
2022-10-23T03:59:29.805Z,6.28
2022-10-23T04:01:59.316Z,6.88
2022-10-23T04:04:26.903Z,7.65
2022-10-23T04:06:54.515Z,6.97
2022-10-23T04:09:22.605Z,5.35
2022-10-23T04:11:50.100Z,13.50
2022-10-23T04:14:17.773Z,12.25
2022-10-23T04:16:45.258Z,5.85
2022-10-23T04:19:12.942Z,8.07
2022-10-23T04:21:41.851Z,6.13
2022-10-23T04:24:09.496Z,8.63
2022-10-23T04:26:38.374Z,4.03
2022-10-23T04:29:05.820Z,4.50
2022-10-23T04:31:33.359Z,6.55
2022-10-23T04:34:00.928Z,8.00
2022-10-23T04:36:32.546Z,4.25
2022-10-23T04:39:07.775Z,3.55
2022-10-23T04:41:38.861Z,6.07
2022-10-23T04:44:07.070Z,7.63
2022-10-23T04:46:38.131Z,2.92
2022-10-23T04:49:06.433Z,9.02
2022-10-23T04:51:49.474Z,4.90
2022-10-23T04:54:40.849Z,2.92
2022-10-23T04:57:23.259Z,5.25
2022-10-23T05:00:13.800Z,8.52
2022-10-23T05:02:45.838Z,6.53
2022-10-23T05:05:15.573Z,7.35
2022-10-23T05:07:55.081Z,5.78
2022-10-23T05:10:32.419Z,5.13
2022-10-23T05:13:09.618Z,2.78
2022-10-23T05:15:37.273Z,3.35
2022-10-23T05:18:15.433Z,7.47
2022-10-23T05:20:45.839Z,4.70
2022-10-23T05:23:16.032Z,3.58
2022-10-23T05:25:52.921Z,3.20
2022-10-23T05:28:20.422Z,4.63
2022-10-23T05:30:48.396Z,8.25
2022-10-23T05:33:17.859Z,4.78
2022-10-23T05:35:45.638Z,3.55
2022-10-23T05:40:44.180Z,9.13
2022-10-23T05:43:17.413Z,5.03
2022-10-23T05:45:50.986Z,3.72
2022-10-23T05:48:35.339Z,3.25
2022-10-23T05:51:32.146Z,3.83
2022-10-23T05:54:26.314Z,2.45
2022-10-23T05:57:12.504Z,5.53
2022-10-23T05:59:45.433Z,1.10
2022-10-23T06:02:22.355Z,4.43
2022-10-23T06:04:54.737Z,5.70
2022-10-23T06:07:40.870Z,3.42
2022-10-23T06:10:11.139Z,4.05
2022-10-23T06:12:43.190Z,3.80
2022-10-23T06:15:15.030Z,3.33
2022-10-23T06:18:02.739Z,2.92
2022-10-23T06:20:36.881Z,3.00
2022-10-23T06:23:10.509Z,2.05
2022-10-23T06:26:04.873Z,4.97
2022-10-23T06:28:40.618Z,3.55
2022-10-23T06:31:12.010Z,3.00
2022-10-23T06:33:40.318Z,2.08
2022-10-23T06:36:10.659Z,6.80
2022-10-23T06:38:40.847Z,7.95
2022-10-23T06:41:14.735Z,5.45
2022-10-23T06:43:44.622Z,7.93
2022-10-23T06:46:18.830Z,7.15
2022-10-23T06:49:16.393Z,9.65
2022-10-23T06:51:48.992Z,8.25
2022-10-23T06:54:21.210Z,4.78
2022-10-23T06:56:51.701Z,4.93
2022-10-23T06:59:23.379Z,8.02
2022-10-23T07:04:25.352Z,6.15
2022-10-23T07:06:57.283Z,6.20
2022-10-23T07:09:30.117Z,8.23
2022-10-23T07:11:57.558Z,4.78
2022-10-23T07:14:36.405Z,7.45
2022-10-23T07:17:04.669Z,9.00
2022-10-23T07:19:32.119Z,4.10
2022-10-23T07:22:05.533Z,4.20
2022-10-23T07:24:37.190Z,5.78
2022-10-23T07:27:12.293Z,10.93
2022-10-23T07:29:39.944Z,10.07
2022-10-23T07:32:07.546Z,8.07
2022-10-23T07:35:01.913Z,10.50
2022-10-23T07:37:32.143Z,7.78
2022-10-23T07:40:02.756Z,7.70
2022-10-23T07:42:32.534Z,7.85
2022-10-23T07:45:00.062Z,12.15
2022-10-23T07:47:29.715Z,3.70
2022-10-23T07:49:57.139Z,10.00
2022-10-23T07:52:25.275Z,7.82
2022-10-23T07:55:13.376Z,7.38
2022-10-23T07:57:47.609Z,5.60
2022-10-23T08:00:45.361Z,10.48
2022-10-23T08:03:24.158Z,9.57
2022-10-23T08:05:56.661Z,4.90
2022-10-23T08:08:25.478Z,7.82
2022-10-23T08:10:56.590Z,7.35
2022-10-23T08:13:29.119Z,7.68
2022-10-23T08:16:02.436Z,6.70
2022-10-23T08:18:53.414Z,6.18
2022-10-23T08:21:37.726Z,11.85
2022-10-23T08:24:06.901Z,5.15
2022-10-23T08:26:34.625Z,6.78
2022-10-23T08:29:05.953Z,6.03
2022-10-23T08:31:36.515Z,5.57
2022-10-23T08:34:13.686Z,4.90
2022-10-23T08:36:42.404Z,8.15
2022-10-23T08:39:16.197Z,6.95
2022-10-23T08:42:24.600Z,7.25
2022-10-23T08:45:02.288Z,10.50
2022-10-23T08:47:38.852Z,10.30
2022-10-23T08:50:34.861Z,9.52
2022-10-23T08:53:14.531Z,12.20
2022-10-23T08:55:52.897Z,9.70
2022-10-23T08:58:48.137Z,6.95
2022-10-23T09:01:20.441Z,10.00
2022-10-23T09:03:47.890Z,12.98
2022-10-23T09:06:25.497Z,7.05
2022-10-23T09:09:10.747Z,5.55
2022-10-23T09:12:00.986Z,7.82
2022-10-23T09:14:30.885Z,6.93
2022-10-23T09:17:27.294Z,9.52
2022-10-23T09:20:25.162Z,8.13
2022-10-23T09:23:07.673Z,10.13
2022-10-23T09:25:39.059Z,6.97
2022-10-23T09:28:06.696Z,8.10
2022-10-23T09:30:37.054Z,9.75
2022-10-23T09:33:25.528Z,7.47
2022-10-23T09:35:57.897Z,4.43
2022-10-23T09:38:37.575Z,6.90
2022-10-23T09:41:17.334Z,6.60
2022-10-23T09:43:44.803Z,4.35
2022-10-23T09:46:13.133Z,7.80
2022-10-23T09:48:42.407Z,5.55
2022-10-23T09:51:21.811Z,4.95
2022-10-23T09:53:53.481Z,5.97
2022-10-23T09:56:26.075Z,3.75
2022-10-23T09:59:06.423Z,8.50
2022-10-23T10:01:48.194Z,2.33
2022-10-23T10:04:41.168Z,6.80
2022-10-23T10:07:31.186Z,3.35
2022-10-23T10:10:01.265Z,7.10
2022-10-23T10:12:46.009Z,4.65
2022-10-23T10:15:19.535Z,3.95
2022-10-23T10:18:04.856Z,5.72
2022-10-23T10:20:47.317Z,2.88
2022-10-23T10:23:42.728Z,10.15
2022-10-23T10:26:37.788Z,5.97
2022-10-23T10:29:30.254Z,6.20
2022-10-23T10:32:22.356Z,6.30
2022-10-23T10:34:57.120Z,7.13
2022-10-23T10:37:30.355Z,6.75
2022-10-23T10:40:15.882Z,4.32
2022-10-23T10:43:01.609Z,8.38
2022-10-23T10:45:49.382Z,9.45
2022-10-23T10:48:47.660Z,6.97
2022-10-23T10:51:51.961Z,11.20
2022-10-23T10:55:02.556Z,4.97
2022-10-23T10:57:38.243Z,5.32
2022-10-23T11:00:18.564Z,5.65
2022-10-23T11:02:59.598Z,7.93
2022-10-23T11:05:44.524Z,6.55
2022-10-23T11:08:21.524Z,4.57
2022-10-23T11:10:53.465Z,8.85
2022-10-23T11:13:36.361Z,5.72
2022-10-23T11:18:43.382Z,6.20
2022-10-23T11:21:35.178Z,5.60
2022-10-23T11:24:19.639Z,5.63
2022-10-23T11:27:11.906Z,8.77
2022-10-23T11:30:03.490Z,7.03
2022-10-23T11:33:09.167Z,7.28
2022-10-23T11:36:07.138Z,7.38
2022-10-23T11:38:41.068Z,4.70
2022-10-23T11:41:25.455Z,7.45
2022-10-23T11:44:05.958Z,8.60
2022-10-23T11:46:38.319Z,7.88
2022-10-23T11:49:19.634Z,7.05
2022-10-23T11:51:47.195Z,7.25
2022-10-23T11:54:18.364Z,7.57
2022-10-23T11:57:02.671Z,10.05
2022-10-23T11:59:32.866Z,4.85
2022-10-23T12:02:03.860Z,8.07
2022-10-23T12:04:47.984Z,6.90
2022-10-23T12:07:26.916Z,8.52
2022-10-23T12:09:59.997Z,8.93
2022-10-23T12:12:40.933Z,6.60
2022-10-23T12:15:11.673Z,8.93
2022-10-23T12:17:40.821Z,14.48
2022-10-23T12:20:08.468Z,9.50
2022-10-23T12:22:45.016Z,11.65
2022-10-23T12:25:34.927Z,14.38
2022-10-23T12:28:31.964Z,5.95
2022-10-23T12:31:17.760Z,6.30
2022-10-23T12:34:00.757Z,9.70
2022-10-23T12:38:58.821Z,4.35
2022-10-23T12:41:28.836Z,15.90
2022-10-23T12:43:59.343Z,11.35
2022-10-23T12:46:42.232Z,7.38
2022-10-23T12:49:19.184Z,12.63
2022-10-23T12:51:57.319Z,6.65
2022-10-23T12:54:26.253Z,5.03
2022-10-23T12:56:54.380Z,5.28
2022-10-23T12:59:32.862Z,4.40
2022-10-23T13:02:01.551Z,4.40
2022-10-23T13:08:21.298Z,6.65
2022-10-23T13:11:15.604Z,10.18
2022-10-23T13:13:43.327Z,18.17
2022-10-23T13:16:19.918Z,12.23
2022-10-23T13:18:48.087Z,8.60
2022-10-23T13:21:27.235Z,7.85
2022-10-23T13:23:55.350Z,12.77
2022-10-23T13:26:45.274Z,9.38
2022-10-23T13:29:23.191Z,5.68
2022-10-23T13:31:51.173Z,8.25
2022-10-23T13:34:24.384Z,8.65
2022-10-23T13:36:57.771Z,10.07
2022-10-23T13:39:28.534Z,6.10
2022-10-23T13:41:56.810Z,7.53
2022-10-23T13:44:24.907Z,7.07
2022-10-23T13:46:53.186Z,6.30
2022-10-23T13:49:20.774Z,9.07
2022-10-23T13:51:52.457Z,9.75
2022-10-23T13:54:25.579Z,8.63
2022-10-23T13:56:54.698Z,5.80
2022-10-23T13:59:22.807Z,9.15
2022-10-23T14:01:51.564Z,7.32
2022-10-23T14:04:20.267Z,11.77
2022-10-23T14:06:48.001Z,8.60
2022-10-23T14:09:20.627Z,10.52
2022-10-23T14:11:48.440Z,7.18
2022-10-23T14:14:18.071Z,7.03
2022-10-23T14:16:46.744Z,6.40
2022-10-23T14:19:15.590Z,9.48
2022-10-23T14:21:43.473Z,8.32
2022-10-23T14:24:11.400Z,12.02
2022-10-23T14:26:39.142Z,9.18
2022-10-23T14:29:10.192Z,8.25
2022-10-23T14:31:41.856Z,8.98
2022-10-23T14:34:09.365Z,6.90
2022-10-23T14:36:49.372Z,11.85
2022-10-23T14:39:18.621Z,9.60
2022-10-23T14:41:46.232Z,7.53
2022-10-23T14:44:13.721Z,7.10
2022-10-23T14:46:41.573Z,6.97
2022-10-23T14:49:09.062Z,8.95
2022-10-23T14:51:36.522Z,11.02
2022-10-23T14:54:06.153Z,6.90
2022-10-23T14:59:07.598Z,9.27
2022-10-23T15:01:43.602Z,7.20
2022-10-23T15:04:14.777Z,9.02
2022-10-23T15:06:43.374Z,12.50
2022-10-23T15:09:11.011Z,6.10
2022-10-23T15:11:38.704Z,7.57
2022-10-23T15:14:08.763Z,9.10
2022-10-23T15:16:41.447Z,9.45
2022-10-23T15:19:15.129Z,6.45
2022-10-23T15:21:47.030Z,8.27
2022-10-23T15:24:15.909Z,10.40
2022-10-23T15:26:44.004Z,8.00
2022-10-23T15:29:11.936Z,10.15
2022-10-23T15:31:43.137Z,8.93
2022-10-23T15:34:17.902Z,8.45
2022-10-23T15:36:47.177Z,6.55
2022-10-23T15:39:18.313Z,10.90
2022-10-23T15:41:46.450Z,8.15
2022-10-23T15:44:17.002Z,10.80
2022-10-23T15:46:45.059Z,8.80
2022-10-23T15:49:13.026Z,15.23
2022-10-23T15:51:41.764Z,16.90
2022-10-23T15:54:13.171Z,13.55
2022-10-23T15:56:40.692Z,12.57
2022-10-23T15:59:08.945Z,12.10
2022-10-23T16:01:36.637Z,17.73
2022-10-23T16:04:04.569Z,11.05
2022-10-23T16:06:32.759Z,9.40
2022-10-23T16:09:00.730Z,8.95
2022-10-23T16:11:31.364Z,6.50
2022-10-23T16:13:59.682Z,4.40
2022-10-23T16:16:28.469Z,7.63
2022-10-23T16:18:58.494Z,3.20
2022-10-23T16:21:28.782Z,4.88
2022-10-23T16:23:57.585Z,3.17
2022-10-23T16:26:26.069Z,1.70
2022-10-23T16:28:55.525Z,2.88
2022-10-23T16:31:24.483Z,2.58
2022-10-23T16:33:52.980Z,2.78
2022-10-23T16:36:21.171Z,3.92
2022-10-23T16:39:24.213Z,1.33
2022-10-23T16:42:10.352Z,5.70
2022-10-23T16:44:57.940Z,1.60
2022-10-23T16:47:31.117Z,2.50
2022-10-23T16:49:58.869Z,1.15
2022-10-23T16:52:27.683Z,6.25
2022-10-23T16:54:55.086Z,10.30
2022-10-23T16:57:22.555Z,9.35
2022-10-23T16:59:50.099Z,9.00
2022-10-23T17:02:17.760Z,11.20
2022-10-23T17:04:45.582Z,5.78
2022-10-23T17:07:13.164Z,4.57
2022-10-23T17:09:41.398Z,7.45
2022-10-23T17:12:09.059Z,3.03
2022-10-23T17:14:38.319Z,2.95
2022-10-23T17:17:06.863Z,3.30
2022-10-23T17:19:49.781Z,8.27
2022-10-23T17:22:17.422Z,2.63
2022-10-23T17:24:47.482Z,7.60
2022-10-23T17:27:18.113Z,5.85
2022-10-23T17:29:45.489Z,4.32
2022-10-23T17:32:12.973Z,7.40
2022-10-23T17:34:40.446Z,5.45
2022-10-23T17:37:08.025Z,11.95
2022-10-23T17:39:35.583Z,11.23
2022-10-23T17:42:03.013Z,30.27
2022-10-23T17:44:30.521Z,39.40
2022-10-23T17:46:58.038Z,37.70
2022-10-23T17:49:25.892Z,23.55
2022-10-23T17:51:55.369Z,23.27
2022-10-23T17:54:24.855Z,10.70
2022-10-23T17:56:52.293Z,9.52
2022-10-23T17:59:19.998Z,13.93
2022-10-23T18:01:49.085Z,9.82
2022-10-23T18:04:19.150Z,7.40
2022-10-23T18:06:50.302Z,15.93
2022-10-23T18:09:18.506Z,12.63
2022-10-23T18:11:48.109Z,10.48
2022-10-23T18:14:18.929Z,13.23
2022-10-23T18:16:46.797Z,16.27
2022-10-23T18:19:17.218Z,14.88
2022-10-23T18:21:45.343Z,15.05
2022-10-23T18:24:13.224Z,20.77
2022-10-23T18:26:41.580Z,13.80
2022-10-23T18:29:10.731Z,6.72
2022-10-23T18:31:39.298Z,8.75
2022-10-23T18:34:11.873Z,19.98
2022-10-23T18:36:40.964Z,11.35
2022-10-23T18:39:11.813Z,15.68
2022-10-23T18:41:42.046Z,17.80
2022-10-23T18:46:37.722Z,14.50
2022-10-23T18:49:05.940Z,9.85
2022-10-23T18:51:35.223Z,13.93
2022-10-23T18:54:08.674Z,12.05
2022-10-23T18:56:38.411Z,12.90
2022-10-23T18:59:08.131Z,13.77
2022-10-23T19:01:36.634Z,11.55
2022-10-23T19:04:04.779Z,12.02
2022-10-23T19:06:33.283Z,11.57
2022-10-23T19:09:00.792Z,10.73
2022-10-23T19:11:29.042Z,13.63
2022-10-23T19:13:56.440Z,9.55
2022-10-23T19:16:49.860Z,9.52
2022-10-23T19:19:24.791Z,11.20
2022-10-23T19:21:53.208Z,13.07
2022-10-23T19:24:30.678Z,13.30
2022-10-23T19:27:00.950Z,9.25
2022-10-23T19:29:29.837Z,14.18
2022-10-23T19:31:57.381Z,12.30
2022-10-23T19:34:25.577Z,10.55
2022-10-23T19:36:54.773Z,12.75
2022-10-23T19:39:23.109Z,12.05
2022-10-23T19:41:51.859Z,12.77
2022-10-23T19:44:20.496Z,10.07
2022-10-23T19:46:48.957Z,13.55
2022-10-23T19:49:17.240Z,8.23
2022-10-23T19:51:50.630Z,13.52
2022-10-23T19:54:20.614Z,11.50
2022-10-23T19:56:48.922Z,10.10
2022-10-23T19:59:19.391Z,13.20
2022-10-23T20:01:48.839Z,8.95
2022-10-23T20:04:18.662Z,19.38
2022-10-23T20:06:47.186Z,11.25
2022-10-23T20:09:14.722Z,5.53
2022-10-23T20:11:43.465Z,8.77
2022-10-23T20:14:11.164Z,12.63
2022-10-23T20:16:39.613Z,11.55
2022-10-23T20:19:10.442Z,8.18
2022-10-23T20:21:40.299Z,8.52
2022-10-23T20:24:08.613Z,10.07
2022-10-23T20:26:38.878Z,9.98
2022-10-23T20:29:07.091Z,9.35
2022-10-23T20:31:39.436Z,12.20
2022-10-23T20:34:07.790Z,9.05
2022-10-23T20:36:39.335Z,10.30
2022-10-23T20:39:13.050Z,9.77
2022-10-23T20:41:41.794Z,7.15
2022-10-23T20:44:12.906Z,7.25
2022-10-23T20:46:40.958Z,10.20
2022-10-23T20:49:08.726Z,12.95
2022-10-23T20:51:36.556Z,9.27
2022-10-23T20:54:04.526Z,8.45
2022-10-23T20:56:37.869Z,9.00
2022-10-23T20:59:09.875Z,8.35
2022-10-23T21:01:40.891Z,11.70
2022-10-23T21:04:10.963Z,12.95
2022-10-23T21:06:51.852Z,9.65
2022-10-23T21:09:28.424Z,9.27
2022-10-23T21:11:56.040Z,7.35
2022-10-23T21:14:23.563Z,12.05
2022-10-23T21:16:51.105Z,11.40
2022-10-23T21:19:18.573Z,15.77
2022-10-23T21:21:46.002Z,13.70
2022-10-23T21:24:16.463Z,9.00
2022-10-23T21:26:45.101Z,11.88
2022-10-23T21:29:20.845Z,5.43
2022-10-23T21:31:56.156Z,6.97
2022-10-23T21:34:24.574Z,7.82
2022-10-23T21:37:12.975Z,11.13
2022-10-23T21:39:42.541Z,13.23
2022-10-23T21:42:14.659Z,13.35
2022-10-23T21:44:42.387Z,17.67
2022-10-23T21:47:10.087Z,14.13
2022-10-23T21:49:37.865Z,16.88
2022-10-23T21:52:05.277Z,9.00
2022-10-23T21:54:33.276Z,14.75
2022-10-23T21:57:03.138Z,9.63
2022-10-23T21:59:33.115Z,13.38
2022-10-23T22:02:03.272Z,9.43
2022-10-23T22:04:30.899Z,10.75
2022-10-23T22:06:58.408Z,5.82
2022-10-23T22:09:25.917Z,11.70
2022-10-23T22:11:54.320Z,13.00
2022-10-23T22:14:23.165Z,12.30
2022-10-23T22:16:50.566Z,12.90
2022-10-23T22:19:19.911Z,14.98
2022-10-23T22:21:49.581Z,9.52
2022-10-23T22:24:20.257Z,9.00
2022-10-23T22:26:53.929Z,14.18
2022-10-23T22:29:24.481Z,8.45
2022-10-23T22:31:52.553Z,8.25
2022-10-23T22:34:28.612Z,14.82
2022-10-23T22:37:11.733Z,15.35
2022-10-23T22:39:42.411Z,7.68
2022-10-23T22:42:09.957Z,8.32
2022-10-23T22:44:37.420Z,9.48
2022-10-23T22:47:05.153Z,14.57
2022-10-23T22:49:32.729Z,11.13
2022-10-23T22:52:00.432Z,10.10
2022-10-23T22:54:27.965Z,8.65
2022-10-23T22:56:55.453Z,8.65
2022-10-23T22:59:23.299Z,14.07
2022-10-23T23:01:51.142Z,15.55
2022-10-23T23:07:11.483Z,15.85
2022-10-23T23:09:41.631Z,11.65
2022-10-23T23:12:10.737Z,16.85
2022-10-23T23:14:38.970Z,13.90
2022-10-23T23:17:07.483Z,10.73
2022-10-23T23:19:35.254Z,15.65
2022-10-23T23:22:03.334Z,11.25
2022-10-23T23:24:31.121Z,15.95
2022-10-23T23:26:58.599Z,12.52
2022-10-23T23:29:28.352Z,11.20
2022-10-23T23:31:55.786Z,15.73
2022-10-23T23:34:23.242Z,14.35
2022-10-23T23:36:50.844Z,24.30
2022-10-23T23:39:18.330Z,14.57
2022-10-23T23:41:45.764Z,22.23
2022-10-23T23:44:13.168Z,12.73
2022-10-23T23:46:40.615Z,18.27
2022-10-23T23:49:08.520Z,19.80
2022-10-23T23:51:37.242Z,18.63
2022-10-23T23:54:04.785Z,20.20
2022-10-23T23:56:32.218Z,14.20
2022-10-23T23:58:59.744Z,14.15
